createdAt,value
2018-09-13T00:03:05.001Z,18.20
2018-09-13T00:07:58.053Z,19.52
2018-09-13T00:12:51.196Z,20.27
2018-09-13T00:17:44.163Z,15.93
2018-09-13T00:22:37.243Z,16.55
2018-09-13T00:27:30.656Z,16.07
2018-09-13T00:32:23.753Z,16.93
2018-09-13T00:37:16.762Z,15.95
2018-09-13T00:42:10.369Z,17.82
2018-09-13T00:47:08.335Z,16.50
2018-09-13T00:52:01.315Z,16.77
2018-09-13T00:56:54.274Z,16.90
2018-09-13T01:01:47.538Z,16.87
2018-09-13T01:06:40.680Z,17.75
2018-09-13T01:11:33.710Z,17.85
2018-09-13T01:16:26.597Z,22.17
2018-09-13T01:21:19.990Z,16.37
2018-09-13T01:26:12.994Z,14.07
2018-09-13T01:31:05.909Z,14.85
2018-09-13T01:35:59.015Z,13.88
2018-09-13T01:40:52.051Z,15.25
2018-09-13T01:45:45.023Z,15.03
2018-09-13T01:50:37.983Z,16.15
2018-09-13T01:55:31.175Z,15.08
2018-09-13T02:00:24.233Z,14.55
2018-09-13T02:05:17.391Z,14.87
2018-09-13T02:10:10.387Z,13.98
2018-09-13T02:15:03.477Z,13.22
2018-09-13T02:19:56.546Z,14.75
2018-09-13T02:24:49.558Z,13.10
2018-09-13T02:29:49.230Z,14.23
2018-09-13T02:34:42.358Z,14.75
2018-09-13T02:39:35.350Z,13.90
2018-09-13T02:44:28.334Z,13.03
2018-09-13T02:49:21.750Z,14.03
2018-09-13T02:54:14.687Z,15.28
2018-09-13T02:59:07.958Z,15.43
2018-09-13T03:04:01.037Z,16.20
2018-09-13T03:08:54.045Z,16.32
2018-09-13T03:13:46.988Z,17.50
2018-09-13T03:18:39.874Z,18.07
2018-09-13T03:23:33.067Z,17.20
2018-09-13T03:28:26.249Z,17.65
2018-09-13T03:33:19.446Z,11.88
2018-09-13T03:38:12.708Z,12.43
2018-09-13T03:43:05.778Z,12.00
2018-09-13T03:47:59.193Z,15.50
2018-09-13T03:52:52.167Z,13.50
2018-09-13T03:57:45.223Z,15.23
2018-09-13T04:02:38.217Z,14.30
2018-09-13T04:07:33.234Z,13.00
2018-09-13T04:12:26.344Z,15.58
2018-09-13T04:17:19.296Z,15.55
2018-09-13T04:22:13.084Z,13.55
2018-09-13T04:27:06.004Z,16.35
2018-09-13T04:31:59.329Z,12.78
2018-09-13T04:36:52.631Z,11.63
2018-09-13T04:41:45.486Z,13.70
2018-09-13T04:46:38.545Z,12.78
2018-09-13T04:51:31.587Z,11.88
2018-09-13T04:56:25.104Z,9.95
2018-09-13T05:01:18.062Z,10.30
2018-09-13T05:06:11.186Z,11.48
2018-09-13T05:11:04.259Z,8.70
2018-09-13T05:15:57.830Z,9.88
2018-09-13T05:20:50.829Z,11.43
2018-09-13T05:25:44.676Z,10.00
2018-09-13T05:30:37.694Z,8.50
2018-09-13T05:35:30.630Z,7.55
2018-09-13T05:40:24.270Z,10.08
2018-09-13T05:45:17.505Z,8.98
2018-09-13T05:50:10.523Z,10.88
2018-09-13T05:55:03.469Z,8.40
2018-09-13T05:59:56.485Z,7.35
2018-09-13T06:04:50.391Z,7.25
2018-09-13T06:09:43.409Z,6.92
2018-09-13T06:14:36.635Z,8.85
2018-09-13T06:19:29.634Z,8.90
2018-09-13T06:24:22.900Z,8.33
2018-09-13T06:29:16.007Z,6.42
2018-09-13T06:34:09.170Z,11.08
2018-09-13T06:39:02.300Z,8.90
2018-09-13T06:43:55.391Z,10.88
2018-09-13T06:48:48.471Z,9.83
2018-09-13T06:53:41.611Z,9.13
2018-09-13T06:58:34.561Z,8.88
2018-09-13T07:03:27.538Z,9.75
2018-09-13T07:08:20.557Z,6.72
2018-09-13T07:13:13.552Z,6.67
2018-09-13T07:18:07.023Z,7.37
2018-09-13T07:23:00.013Z,7.80
2018-09-13T07:27:53.296Z,7.08
2018-09-13T07:32:46.471Z,6.57
2018-09-13T07:37:39.534Z,8.38
2018-09-13T07:42:32.759Z,8.55
2018-09-13T07:47:25.913Z,7.97
2018-09-13T07:52:19.387Z,6.35
2018-09-13T07:57:12.469Z,6.45
2018-09-13T08:02:05.632Z,7.72
2018-09-13T08:06:58.695Z,5.42
2018-09-13T08:11:51.810Z,7.90
2018-09-13T08:16:45.059Z,6.87
2018-09-13T08:21:38.132Z,5.05
2018-09-13T08:26:31.138Z,5.72
2018-09-13T08:31:24.251Z,6.75
2018-09-13T08:36:17.315Z,6.47
2018-09-13T08:41:10.702Z,6.58
2018-09-13T08:46:03.746Z,8.68
2018-09-13T08:50:57.150Z,7.20
2018-09-13T08:55:50.192Z,5.92
2018-09-13T09:00:43.226Z,7.62
2018-09-13T09:05:36.226Z,5.53
2018-09-13T09:10:29.267Z,5.80
2018-09-13T09:15:22.390Z,12.80
2018-09-13T09:20:15.355Z,7.28
2018-09-13T09:25:08.306Z,5.70
2018-09-13T09:30:01.339Z,6.60
2018-09-13T09:34:54.430Z,9.00
2018-09-13T09:39:47.453Z,7.22
2018-09-13T09:44:40.559Z,8.58
2018-09-13T09:49:33.556Z,6.85
2018-09-13T09:54:26.750Z,5.30
2018-09-13T09:59:20.767Z,14.13
2018-09-13T10:04:13.788Z,6.78
2018-09-13T10:09:07.936Z,8.33
2018-09-13T10:14:00.960Z,6.50
2018-09-13T10:18:59.397Z,5.47
2018-09-13T10:23:57.805Z,5.80
2018-09-13T10:28:56.382Z,5.87
2018-09-13T10:33:54.768Z,6.83
2018-09-13T10:38:53.232Z,6.70
2018-09-13T10:43:51.570Z,6.25
2018-09-13T10:48:50.090Z,5.42
2018-09-13T10:53:44.587Z,5.22
2018-09-13T10:58:37.630Z,5.35
2018-09-13T11:03:30.606Z,5.53
2018-09-13T11:08:23.951Z,6.42
2018-09-13T11:14:21.119Z,5.95
2018-09-13T11:19:14.169Z,7.10
2018-09-13T11:24:07.384Z,5.95
2018-09-13T11:29:00.569Z,5.95
2018-09-13T11:33:53.683Z,4.40
2018-09-13T11:38:46.710Z,5.00
2018-09-13T11:43:39.932Z,6.85
2018-09-13T11:48:33.657Z,5.03
2018-09-13T11:53:26.724Z,9.35
2018-09-13T11:58:20.412Z,8.15
2018-09-13T12:03:14.086Z,6.75
2018-09-13T12:08:07.494Z,7.17
2018-09-13T12:13:00.834Z,6.50
2018-09-13T12:17:53.853Z,5.45
2018-09-13T12:22:46.820Z,7.58
2018-09-13T12:27:39.898Z,9.78
2018-09-13T12:32:33.006Z,7.50
2018-09-13T12:37:26.196Z,5.50
2018-09-13T12:42:19.237Z,5.20
2018-09-13T12:47:12.299Z,7.58
2018-09-13T12:52:05.625Z,7.00
2018-09-13T12:56:58.984Z,7.37
2018-09-13T13:01:52.293Z,10.63
2018-09-13T13:06:45.555Z,9.55
2018-09-13T13:11:38.693Z,6.20
2018-09-13T13:16:31.993Z,8.93
2018-09-13T13:21:25.139Z,5.72
2018-09-13T13:26:19.033Z,8.63
2018-09-13T13:31:12.263Z,6.47
2018-09-13T13:36:06.115Z,7.65
2018-09-13T13:41:00.379Z,9.68
2018-09-13T13:45:54.391Z,6.25
2018-09-13T13:50:47.582Z,10.08
2018-09-13T13:55:40.751Z,11.03
2018-09-13T14:00:34.232Z,10.63
2018-09-13T14:05:27.549Z,11.05
2018-09-13T14:10:20.785Z,10.35
2018-09-13T14:15:13.975Z,9.70
2018-09-13T14:20:07.596Z,10.43
2018-09-13T14:25:01.087Z,13.95
2018-09-13T14:29:54.657Z,14.60
2018-09-13T14:34:47.962Z,9.55
2018-09-13T14:39:41.578Z,8.73
2018-09-13T14:44:35.429Z,10.93
2018-09-13T14:49:29.354Z,13.28
2018-09-13T14:54:22.441Z,12.75
2018-09-13T14:59:15.566Z,13.78
2018-09-13T15:04:08.755Z,10.78
2018-09-13T15:09:06.438Z,11.55
2018-09-13T15:13:59.495Z,9.60
2018-09-13T15:18:52.689Z,10.15
2018-09-13T15:23:46.205Z,7.60
2018-09-13T15:28:39.362Z,5.85
2018-09-13T15:33:32.668Z,6.05
2018-09-13T15:38:25.976Z,8.18
2018-09-13T15:43:19.202Z,6.80
2018-09-13T15:48:12.305Z,6.35
2018-09-13T15:53:05.456Z,5.37
2018-09-13T15:57:58.586Z,8.65
2018-09-13T16:02:51.812Z,11.33
2018-09-13T16:07:45.112Z,7.25
2018-09-13T16:12:38.235Z,12.30
2018-09-13T16:17:31.625Z,14.38
2018-09-13T16:22:24.723Z,14.45
2018-09-13T16:27:18.074Z,14.35
2018-09-13T16:32:12.005Z,13.13
2018-09-13T16:37:08.059Z,15.38
2018-09-13T16:42:06.833Z,14.05
2018-09-13T16:47:06.483Z,12.75
2018-09-13T16:51:59.771Z,12.05
2018-09-13T16:56:53.314Z,9.73
2018-09-13T17:01:46.781Z,12.35
2018-09-13T17:06:40.160Z,9.88
2018-09-13T17:11:33.586Z,11.75
2018-09-13T17:16:27.332Z,11.18
2018-09-13T17:21:20.564Z,8.60
2018-09-13T17:26:13.819Z,7.97
2018-09-13T17:31:06.955Z,12.53
2018-09-13T17:36:00.436Z,13.15
2018-09-13T17:40:53.631Z,10.18
2018-09-13T17:45:48.502Z,9.35
2018-09-13T17:50:41.771Z,7.78
2018-09-13T17:55:38.071Z,8.53
2018-09-13T18:00:31.175Z,7.10
2018-09-13T18:05:24.590Z,7.60
2018-09-13T18:10:17.835Z,7.20
2018-09-13T18:15:11.854Z,6.30
2018-09-13T18:20:10.383Z,9.10
2018-09-13T18:25:03.404Z,11.83
2018-09-13T18:29:56.820Z,13.48
2018-09-13T18:34:51.487Z,10.82
2018-09-13T18:39:44.789Z,12.40
2018-09-13T18:44:37.971Z,19.55
2018-09-13T18:49:31.179Z,16.07
2018-09-13T18:54:24.928Z,14.55
2018-09-13T18:59:19.252Z,15.80
2018-09-13T19:04:12.527Z,12.73
2018-09-13T19:09:11.185Z,17.67
2018-09-13T19:14:05.729Z,12.50
2018-09-13T19:18:59.539Z,15.60
2018-09-13T19:23:53.399Z,15.60
2018-09-13T19:28:46.822Z,22.55
2018-09-13T19:33:41.152Z,18.85
2018-09-13T19:38:34.501Z,13.38
2018-09-13T19:43:29.418Z,18.10
2018-09-13T19:48:22.663Z,10.30
2018-09-13T19:53:16.394Z,26.65
2018-09-13T19:58:09.812Z,14.50
2018-09-13T20:03:03.473Z,19.27
2018-09-13T20:07:56.454Z,20.45
2018-09-13T20:12:50.292Z,11.25
2018-09-13T20:17:43.958Z,12.28
2018-09-13T20:22:37.223Z,10.60
2018-09-13T20:27:30.566Z,7.17
2018-09-13T20:32:23.772Z,8.45
2018-09-13T20:37:16.879Z,9.33
2018-09-13T20:42:09.947Z,8.95
2018-09-13T20:47:03.066Z,11.80
2018-09-13T20:51:56.059Z,15.03
2018-09-13T20:56:49.735Z,10.00
2018-09-13T21:01:43.054Z,9.75
2018-09-13T21:06:36.073Z,9.68
2018-09-13T21:11:29.192Z,9.83
2018-09-13T21:16:22.781Z,9.93
2018-09-13T21:21:15.925Z,6.83
2018-09-13T21:26:08.993Z,10.23
2018-09-13T21:31:02.218Z,9.33
2018-09-13T21:35:55.451Z,10.03
2018-09-13T21:40:48.958Z,10.78
2018-09-13T21:45:42.048Z,10.48
2018-09-13T21:50:35.116Z,8.95
2018-09-13T21:55:29.104Z,12.60
2018-09-13T22:00:22.439Z,13.18
2018-09-13T22:05:15.465Z,8.55
2018-09-13T22:10:08.902Z,10.70
2018-09-13T22:15:01.986Z,7.05
2018-09-13T22:19:54.950Z,10.93
2018-09-13T22:24:48.115Z,7.78
2018-09-13T22:29:41.150Z,7.30
2018-09-13T22:34:34.727Z,9.00
2018-09-13T22:39:27.830Z,10.35
2018-09-13T22:44:22.050Z,8.95
2018-09-13T22:49:15.249Z,9.38
2018-09-13T22:54:08.503Z,10.93
2018-09-13T22:59:02.051Z,8.75
2018-09-13T23:03:55.206Z,8.78
2018-09-13T23:08:48.249Z,10.38
2018-09-13T23:13:43.767Z,10.65
2018-09-13T23:18:37.027Z,10.48
2018-09-13T23:23:30.279Z,9.08
2018-09-13T23:28:23.202Z,10.70
2018-09-13T23:33:16.456Z,11.78
2018-09-13T23:38:09.601Z,12.07
2018-09-13T23:43:02.699Z,13.22
2018-09-13T23:47:55.757Z,10.43
2018-09-13T23:52:48.927Z,13.65
2018-09-13T23:57:42.091Z,11.80
